createdAt,value
2018-06-07T02:11:22.889Z,3
2018-06-07T02:20:53.537Z,7
2018-06-07T02:25:23.767Z,10
2018-06-07T02:27:53.918Z,13
2018-06-07T02:29:54.034Z,17
2018-06-07T02:31:54.179Z,20
2018-06-07T02:33:24.268Z,23
2018-06-07T02:34:24.327Z,27
2018-06-07T02:35:24.407Z,30
2018-06-07T02:36:24.481Z,33
2018-06-07T02:37:24.535Z,37
2018-06-07T02:38:24.608Z,40
2018-06-07T02:38:54.604Z,43
2018-06-07T02:39:24.668Z,47
2018-06-07T02:40:24.720Z,50
2018-06-07T02:40:54.786Z,53
2018-06-07T02:41:24.796Z,57
2018-06-07T02:41:54.819Z,60
2018-06-07T02:42:24.870Z,63
2018-06-07T02:42:54.862Z,67
2018-06-07T02:43:24.908Z,70
2018-06-07T02:43:54.926Z,73
2018-06-07T02:44:24.957Z,77
2018-06-07T02:44:54.953Z,80
2018-06-07T02:45:25.056Z,83
2018-06-07T02:45:55.018Z,90
2018-06-07T02:46:25.092Z,93
2018-06-07T02:46:55.112Z,97
2018-06-07T02:47:25.149Z,103
2018-06-07T02:47:55.181Z,107
2018-06-07T02:48:25.213Z,113
2018-06-07T02:48:55.193Z,120
2018-06-07T02:49:25.317Z,123
2018-06-07T02:49:55.317Z,130
2018-06-07T02:50:25.357Z,137
2018-06-07T02:50:55.381Z,143
2018-06-07T02:51:25.393Z,147
2018-06-07T02:51:55.421Z,153
2018-06-07T02:52:25.441Z,160
2018-06-07T02:52:55.485Z,170
2018-06-07T02:53:25.480Z,177
2018-06-07T02:53:55.534Z,183
2018-06-07T02:54:25.585Z,190
2018-06-07T02:54:55.565Z,197
2018-06-07T02:55:25.594Z,207
2018-06-07T02:55:55.672Z,213
2018-06-07T02:56:25.665Z,217
2018-06-07T02:56:55.730Z,227
2018-06-07T02:57:25.729Z,233
2018-06-07T02:57:55.754Z,243
2018-06-07T02:58:25.790Z,253
2018-06-07T02:58:55.813Z,263
2018-06-07T02:59:25.844Z,273
2018-06-07T02:59:55.909Z,283
2018-06-07T03:00:25.916Z,293
2018-06-07T03:00:55.951Z,303
2018-06-07T03:01:25.991Z,313
2018-06-07T03:01:56.037Z,323
2018-06-07T03:02:26.027Z,333
2018-06-07T03:02:56.092Z,347
2018-06-07T03:03:26.093Z,357
2018-06-07T03:03:56.145Z,370
2018-06-07T03:04:26.216Z,380
2018-06-07T03:04:56.199Z,393
2018-06-07T03:05:26.257Z,407
2018-06-07T03:05:56.248Z,420
2018-06-07T03:06:26.293Z,430
2018-06-07T03:06:56.369Z,440
2018-06-07T03:07:26.393Z,457
2018-06-07T03:07:56.454Z,470
2018-06-07T03:08:26.435Z,483
2018-06-07T03:08:56.435Z,497
2018-06-07T03:09:26.481Z,510
2018-06-07T03:09:56.515Z,527
2018-06-07T03:10:26.527Z,540
2018-06-07T03:10:56.573Z,557
2018-06-07T03:11:26.690Z,570
2018-06-07T03:11:56.685Z,587
2018-06-07T03:12:26.661Z,603
2018-06-07T03:12:56.695Z,620
2018-06-07T03:13:26.740Z,637
2018-06-07T03:13:56.739Z,650
2018-06-07T03:14:26.827Z,667
2018-06-07T03:14:56.809Z,683
2018-06-07T03:15:26.825Z,700
2018-06-07T03:15:56.866Z,717
2018-06-07T03:16:26.903Z,733
2018-06-07T03:16:56.936Z,750
2018-06-07T03:17:26.956Z,770
2018-06-07T03:17:56.996Z,787
2018-06-07T03:18:27.035Z,807
2018-06-07T03:18:57.051Z,823
2018-06-07T03:19:27.109Z,843
2018-06-07T03:19:57.119Z,857
2018-06-07T03:20:27.172Z,877
2018-06-07T03:20:57.228Z,893
2018-06-07T03:21:27.241Z,913
2018-06-07T03:21:57.288Z,930
2018-06-07T03:22:27.264Z,950
2018-06-07T03:22:57.350Z,967
2018-06-07T03:23:27.357Z,987
2018-06-07T03:23:57.483Z,1007
2018-06-07T03:24:27.410Z,1027
2018-06-07T03:24:57.447Z,1047
2018-06-07T03:25:27.477Z,1067
2018-06-07T03:25:57.544Z,1087
2018-06-07T03:26:27.582Z,1110
2018-06-07T03:26:57.618Z,1130
2018-06-07T03:27:27.569Z,1153
2018-06-07T03:27:57.636Z,1177
2018-06-07T03:28:27.705Z,1197
2018-06-07T03:28:57.800Z,1220
2018-06-07T03:29:27.728Z,1240
2018-06-07T03:29:57.723Z,1263
2018-06-07T03:30:27.782Z,1280
2018-06-07T03:30:57.848Z,1303
2018-06-07T03:31:27.897Z,1327
2018-06-07T03:31:57.932Z,1347
2018-06-07T03:32:27.946Z,1370
2018-06-07T03:32:57.949Z,1393
2018-06-07T03:33:28.004Z,1417
2018-06-07T03:33:57.989Z,1440
2018-06-07T03:34:28.077Z,1463
2018-06-07T03:34:58.076Z,1487
2018-06-07T03:35:28.092Z,1507
2018-06-07T03:35:58.122Z,1530
2018-06-07T03:36:28.157Z,1557
2018-06-07T03:36:58.198Z,1580
2018-06-07T03:37:28.247Z,1603
2018-06-07T03:37:58.258Z,1627
2018-06-07T03:38:28.329Z,1653
2018-06-07T03:38:58.359Z,1673
2018-06-07T03:39:28.391Z,1697
2018-06-07T03:39:58.355Z,1717
2018-06-07T03:40:28.391Z,1740
2018-06-07T03:40:58.427Z,1763
2018-06-07T03:41:28.459Z,1787
2018-06-07T03:41:58.513Z,1810
2018-06-07T03:42:28.517Z,1830
2018-06-07T03:42:58.538Z,1853
2018-06-07T03:43:28.617Z,1877
2018-06-07T03:43:58.631Z,1903
2018-06-07T03:44:28.620Z,1923
2018-06-07T03:44:58.707Z,1947
2018-06-07T03:45:28.697Z,1970
2018-06-07T03:45:58.722Z,1997
2018-06-07T03:46:28.776Z,2023
2018-06-07T03:46:58.775Z,2047
2018-06-07T03:47:28.811Z,2073
2018-06-07T03:47:58.844Z,2100
2018-06-07T03:48:28.868Z,2123
2018-06-07T03:48:58.919Z,2143
2018-06-07T03:49:28.937Z,2170
2018-06-07T03:49:58.961Z,2197
2018-06-07T03:50:29.008Z,2223
2018-06-07T03:50:59.036Z,2250
2018-06-07T03:51:29.091Z,2277
2018-06-07T03:51:59.094Z,2303
2018-06-07T03:52:29.117Z,2330
2018-06-07T03:52:59.154Z,2353
2018-06-07T03:53:29.180Z,2380
2018-06-07T03:53:59.248Z,2407
2018-06-07T03:54:29.329Z,2437
2018-06-07T03:54:59.329Z,2463
2018-06-07T03:55:29.294Z,2493
2018-06-07T03:55:59.389Z,2523
2018-06-07T03:56:29.388Z,2550
2018-06-07T03:56:59.419Z,2577
2018-06-07T03:57:29.449Z,2610
2018-06-07T03:57:59.506Z,2640
2018-06-07T03:58:29.533Z,2670
2018-06-07T03:58:59.636Z,2700
2018-06-07T03:59:29.620Z,2733
2018-06-07T03:59:59.593Z,2760
2018-06-07T04:00:29.639Z,2783
2018-06-07T04:00:59.683Z,2807
2018-06-07T04:01:29.674Z,2830
2018-06-07T04:01:59.734Z,2853
2018-06-07T04:02:29.746Z,2877
2018-06-07T04:02:59.761Z,2897
2018-06-07T04:03:29.788Z,2920
2018-06-07T04:03:59.895Z,2943
2018-06-07T04:04:29.846Z,2963
2018-06-07T04:04:59.888Z,2983
2018-06-07T04:05:29.935Z,3003
2018-06-07T04:05:59.950Z,3023
2018-06-07T04:06:29.986Z,3047
2018-06-07T04:07:00.006Z,3067
2018-06-07T04:07:30.032Z,3090
2018-06-07T04:08:00.090Z,3113
2018-06-07T04:08:30.140Z,3137
2018-06-07T04:09:00.225Z,3157
2018-06-07T04:09:30.161Z,3177
2018-06-07T04:10:01.770Z,3197
2018-06-07T04:10:30.219Z,3210
2018-06-07T04:11:01.628Z,3223
2018-06-07T04:11:30.294Z,3237
2018-06-07T04:12:01.664Z,3250
2018-06-07T04:12:30.359Z,3260
2018-06-07T04:13:00.879Z,3270
2018-06-07T04:13:30.500Z,3280
2018-06-07T04:14:01.232Z,3290
2018-06-07T04:14:30.533Z,3297
2018-06-07T04:15:01.111Z,3307
2018-06-07T04:15:30.557Z,3320
2018-06-07T04:16:01.505Z,3333
2018-06-07T04:16:30.600Z,3350
2018-06-07T04:17:01.759Z,3367
2018-06-07T04:17:30.690Z,3387
2018-06-07T04:18:01.601Z,3410
2018-06-07T04:18:30.715Z,3430
2018-06-07T04:19:01.646Z,3457
2018-06-07T04:19:30.869Z,3483
2018-06-07T04:20:01.007Z,3510
2018-06-07T04:20:30.878Z,3537
2018-06-07T04:21:01.540Z,3563
2018-06-07T04:21:30.952Z,3593
2018-06-07T04:22:01.433Z,3623
2018-06-07T04:22:31.008Z,3643
2018-06-07T04:23:01.615Z,3670
2018-06-07T04:23:31.060Z,3697
2018-06-07T04:24:01.577Z,3720
2018-06-07T04:24:31.170Z,3743
2018-06-07T04:25:01.195Z,3767
2018-06-07T04:25:31.175Z,3790
2018-06-07T04:26:01.177Z,3813
2018-06-07T04:26:31.232Z,3837
2018-06-07T04:27:02.374Z,3857
2018-06-07T04:27:31.324Z,3877
2018-06-07T04:28:01.680Z,3903
2018-06-07T04:28:31.379Z,3927
2018-06-07T04:29:01.540Z,3947
2018-06-07T04:29:31.448Z,3967
2018-06-07T04:30:01.905Z,3983
2018-06-07T04:30:31.502Z,4003
2018-06-07T04:31:01.530Z,4020
2018-06-07T04:31:31.575Z,4040
2018-06-07T04:32:01.602Z,4057
2018-06-07T04:32:31.576Z,4077
2018-06-07T04:33:01.615Z,4093
2018-06-07T04:33:31.687Z,4117
2018-06-07T04:34:02.797Z,4133
2018-06-07T04:34:31.707Z,4150
2018-06-07T04:35:01.749Z,4170
2018-06-07T04:35:31.779Z,4183
2018-06-07T04:36:01.814Z,4203
2018-06-07T04:36:31.828Z,4220
2018-06-07T04:37:01.868Z,4243
2018-06-07T04:37:31.889Z,4260
2018-06-07T04:38:01.972Z,4277
2018-06-07T04:38:31.944Z,4293
2018-06-07T04:39:02.776Z,4320
2018-06-07T04:39:32.009Z,4343
2018-06-07T04:40:02.078Z,4367
2018-06-07T04:40:32.065Z,4387
2018-06-07T04:41:02.159Z,4410
2018-06-07T04:41:32.135Z,4433
2018-06-07T04:42:02.387Z,4457
2018-06-07T04:42:32.261Z,4477
2018-06-07T04:43:02.217Z,4493
2018-06-07T04:43:32.358Z,4520
2018-06-07T04:44:02.300Z,4540
2018-06-07T04:44:32.387Z,4563
2018-06-07T04:45:02.437Z,4583
2018-06-07T04:45:32.382Z,4603
2018-06-07T04:46:02.460Z,4630
2018-06-07T04:46:32.504Z,4650
2018-06-07T04:47:02.525Z,4670
2018-06-07T04:47:32.533Z,4693
2018-06-07T04:48:02.598Z,4710
2018-06-07T04:48:32.598Z,4737
2018-06-07T04:49:02.663Z,4753
2018-06-07T04:49:32.616Z,4773
2018-06-07T04:50:02.703Z,4790
2018-06-07T04:50:32.734Z,4807
2018-06-07T04:51:02.723Z,4823
2018-06-07T04:51:32.765Z,4840
2018-06-07T04:52:02.800Z,4853
2018-06-07T04:52:32.806Z,4877
2018-06-07T04:53:02.837Z,4903
2018-06-07T04:53:32.864Z,4920
2018-06-07T04:54:02.945Z,4943
2018-06-07T04:54:32.924Z,4963
2018-06-07T04:55:02.963Z,4987
2018-06-07T04:55:33.019Z,5007
2018-06-07T04:56:03.070Z,5027
2018-06-07T04:56:33.051Z,5050
2018-06-07T04:57:03.091Z,5067
2018-06-07T04:57:33.117Z,5083
2018-06-07T04:58:03.225Z,5093
2018-06-07T04:58:33.188Z,5113
2018-06-07T04:59:03.210Z,5343
2018-06-07T04:59:33.265Z,6603
2018-06-07T05:00:03.315Z,8423
2018-06-07T05:00:33.388Z,9673
2018-06-07T05:01:03.393Z,10473
2018-06-07T05:01:33.407Z,10627
2018-06-07T05:02:03.409Z,10327
2018-06-07T05:02:33.472Z,11017
2018-06-07T05:03:03.485Z,11480
2018-06-07T05:03:33.540Z,11503
2018-06-07T05:04:03.591Z,11703
2018-06-07T05:04:33.587Z,11663
2018-06-07T05:05:03.619Z,11217
2018-06-07T05:05:33.671Z,11803
2018-06-07T05:06:03.699Z,11777
2018-06-07T05:06:33.713Z,10640
2018-06-07T05:07:03.739Z,9403
2018-06-07T05:07:33.771Z,8533
2018-06-07T05:08:03.812Z,8087
2018-06-07T05:08:33.818Z,8523
2018-06-07T05:09:03.871Z,9327
2018-06-07T05:09:33.945Z,9967
2018-06-07T05:10:03.933Z,9987
2018-06-07T05:10:34.013Z,9180
2018-06-07T05:11:03.999Z,8700
2018-06-07T05:11:34.011Z,8590
2018-06-07T05:12:04.055Z,8550
2018-06-07T05:12:34.064Z,7893
2018-06-07T05:13:04.117Z,7283
2018-06-07T05:13:34.095Z,6627
2018-06-07T05:14:04.237Z,6773
2018-06-07T05:14:34.234Z,6827
2018-06-07T05:15:04.257Z,6900
2018-06-07T05:15:34.305Z,6853
2018-06-07T05:16:04.303Z,6447
2018-06-07T05:16:34.405Z,6393
2018-06-07T05:17:04.375Z,6183
2018-06-07T05:17:34.410Z,6177
2018-06-07T05:18:04.445Z,6340
2018-06-07T05:18:34.485Z,6657
2018-06-07T05:19:04.492Z,7187
2018-06-07T05:19:34.501Z,7513
2018-06-07T05:20:04.527Z,7773
2018-06-07T05:20:34.531Z,7700
2018-06-07T05:21:04.564Z,7163
2018-06-07T05:21:34.668Z,7767
2018-06-07T05:22:04.695Z,9217
2018-06-07T05:22:34.667Z,9947
2018-06-07T05:23:04.686Z,9387
2018-06-07T05:23:34.768Z,9000
2018-06-07T05:24:04.752Z,8850
2018-06-07T05:24:34.791Z,7200
2018-06-07T05:25:04.821Z,6957
2018-06-07T05:25:34.840Z,6360
2018-06-07T05:26:04.874Z,6483
2018-06-07T05:26:34.927Z,7380
2018-06-07T05:27:04.954Z,8393
2018-06-07T05:27:34.958Z,9533
2018-06-07T05:28:04.992Z,9733
2018-06-07T05:28:35.020Z,9463
2018-06-07T05:29:05.100Z,8477
2018-06-07T05:29:35.092Z,8280
2018-06-07T05:30:05.135Z,7937
2018-06-07T05:30:35.166Z,8843
2018-06-07T05:31:05.234Z,9360
2018-06-07T05:31:35.264Z,9027
2018-06-07T05:32:05.318Z,8197
2018-06-07T05:32:35.318Z,7057
2018-06-07T05:33:05.332Z,6340
2018-06-07T05:33:35.391Z,6307
2018-06-07T05:34:05.441Z,6400
2018-06-07T05:34:35.473Z,6387
2018-06-07T05:35:05.514Z,6373
2018-06-07T05:35:35.484Z,6280
2018-06-07T05:36:05.576Z,6183
2018-06-07T05:36:35.625Z,6163
2018-06-07T05:37:05.582Z,6177
2018-06-07T05:37:35.693Z,6190
2018-06-07T05:38:05.631Z,6210
2018-06-07T05:38:35.642Z,6220
2018-06-07T05:39:05.685Z,6293
2018-06-07T05:39:35.748Z,6267
2018-06-07T05:40:05.739Z,6337
2018-06-07T05:40:35.820Z,6473
2018-06-07T05:41:05.799Z,6427
2018-06-07T05:41:35.846Z,6423
2018-06-07T05:42:05.858Z,6480
2018-06-07T05:42:35.948Z,6607
2018-06-07T05:43:05.934Z,6637
2018-06-07T05:43:35.952Z,6717
2018-06-07T05:44:06.007Z,7280
2018-06-07T05:44:36.016Z,7547
2018-06-07T05:45:06.041Z,8107
2018-06-07T05:45:36.163Z,7660
2018-06-07T05:46:06.102Z,7640
2018-06-07T05:46:36.141Z,7707
2018-06-07T05:47:06.178Z,7253
2018-06-07T05:47:36.226Z,7110
2018-06-07T05:48:06.241Z,7050
2018-06-07T05:48:36.254Z,7007
2018-06-07T05:49:06.370Z,8383
2018-06-07T05:49:36.329Z,8783
2018-06-07T05:50:06.398Z,9377
2018-06-07T05:50:36.445Z,9130
2018-06-07T05:51:06.458Z,8597
2018-06-07T05:51:36.563Z,9337
2018-06-07T05:52:06.540Z,8037
2018-06-07T05:52:36.558Z,7857
2018-06-07T05:53:06.572Z,7240
2018-06-07T05:53:36.570Z,7660
2018-06-07T05:54:06.602Z,7150
2018-06-07T05:54:36.661Z,7350
2018-06-07T05:55:06.719Z,6983
2018-06-07T05:55:36.736Z,7453
2018-06-07T05:56:06.785Z,8247
2018-06-07T05:56:36.792Z,7667
2018-06-07T05:57:06.815Z,8807
2018-06-07T05:57:37.019Z,8537
2018-06-07T05:58:06.855Z,8380
2018-06-07T05:58:36.919Z,7153
2018-06-07T05:59:07.073Z,7680
2018-06-07T05:59:37.083Z,7520
2018-06-07T06:00:07.015Z,7947
2018-06-07T06:00:37.036Z,8660
2018-06-07T06:01:07.115Z,9090
2018-06-07T06:01:37.118Z,7820
2018-06-07T06:02:07.154Z,7380
2018-06-07T06:02:37.248Z,8620
2018-06-07T06:03:07.249Z,8830
2018-06-07T06:03:37.245Z,7343
2018-06-07T06:04:07.265Z,9130
2018-06-07T06:04:37.296Z,8013
2018-06-07T06:05:07.308Z,8700
2018-06-07T06:05:37.361Z,7640
2018-06-07T06:06:07.430Z,8430
2018-06-07T06:06:37.414Z,8337
2018-06-07T06:07:07.485Z,8380
2018-06-07T06:07:37.557Z,8533
2018-06-07T06:08:07.531Z,7423
2018-06-07T06:08:37.516Z,7630
2018-06-07T06:09:07.612Z,8233
2018-06-07T06:09:37.710Z,8577
2018-06-07T06:10:07.587Z,8977
2018-06-07T06:10:37.618Z,8790
2018-06-07T06:11:07.680Z,8123
2018-06-07T06:11:37.687Z,7467
2018-06-07T06:12:07.741Z,7447
2018-06-07T06:12:37.789Z,7437
2018-06-07T06:13:07.787Z,7773
2018-06-07T06:13:37.811Z,7843
2018-06-07T06:14:07.837Z,8277
2018-06-07T06:14:37.862Z,7850
2018-06-07T06:15:07.930Z,7660
2018-06-07T06:15:37.928Z,7613
2018-06-07T06:16:07.980Z,7567
2018-06-07T06:16:37.987Z,7797
2018-06-07T06:17:08.020Z,8107
2018-06-07T06:17:38.316Z,7717
2018-06-07T06:18:08.077Z,8553
2018-06-07T06:18:38.116Z,8657
2018-06-07T06:19:08.179Z,8797
2018-06-07T06:19:38.200Z,8817
2018-06-07T06:20:08.245Z,8307
2018-06-07T06:20:38.282Z,7900
2018-06-07T06:21:08.320Z,8147
2018-06-07T06:21:38.352Z,8007
2018-06-07T06:22:08.332Z,7893
2018-06-07T06:22:38.403Z,7900
2018-06-07T06:23:08.437Z,7630
2018-06-07T06:23:38.509Z,7620
2018-06-07T06:24:08.471Z,7573
2018-06-07T06:25:08.561Z,7577
2018-06-07T06:25:38.570Z,7590
2018-06-07T06:26:08.586Z,7603
2018-06-07T06:26:38.608Z,7620
2018-06-07T06:27:08.658Z,7837
2018-06-07T06:27:38.745Z,7833
2018-06-07T06:28:08.709Z,7693
2018-06-07T06:28:38.735Z,7723
2018-06-07T06:29:08.798Z,7710
2018-06-07T06:29:38.838Z,7713
2018-06-07T06:30:08.873Z,7730
2018-06-07T06:30:38.853Z,7743
2018-06-07T06:31:08.880Z,7817
2018-06-07T06:31:38.912Z,7763
2018-06-07T06:32:08.942Z,7783
2018-06-07T06:32:39.035Z,7817
2018-06-07T06:33:09.016Z,7810
2018-06-07T06:33:39.050Z,7827
2018-06-07T06:34:09.067Z,7847
2018-06-07T06:34:39.387Z,7863
2018-06-07T06:35:09.185Z,7893
2018-06-07T06:35:39.157Z,7930
2018-06-07T06:36:09.262Z,7937
2018-06-07T06:36:39.219Z,7957
2018-06-07T06:37:09.273Z,7987
2018-06-07T06:37:39.300Z,8017
2018-06-07T06:38:09.431Z,8077
2018-06-07T06:38:39.389Z,8063
2018-06-07T06:39:09.501Z,8103
2018-06-07T06:39:39.482Z,8177
2018-06-07T06:40:09.463Z,8190
2018-06-07T06:40:39.493Z,8233
2018-06-07T06:41:09.517Z,8253
2018-06-07T06:41:39.586Z,8293
2018-06-07T06:42:09.637Z,8317
2018-06-07T06:43:39.717Z,8347
2018-06-07T06:44:09.725Z,8317
2018-06-07T06:44:39.712Z,8380
2018-06-07T06:45:09.788Z,8407
2018-06-07T06:46:09.849Z,8483
2018-06-07T06:46:39.891Z,8470
2018-06-07T06:47:09.909Z,8483
2018-06-07T06:47:39.946Z,8583
2018-06-07T06:48:09.996Z,8660
2018-06-07T06:48:40.037Z,8543
2018-06-07T06:49:10.055Z,8587
2018-06-07T06:49:40.287Z,8623
2018-06-07T06:50:10.190Z,8697
2018-06-07T06:50:40.136Z,8750
2018-06-07T06:51:10.151Z,8850
2018-06-07T06:51:40.212Z,8810
2018-06-07T06:52:10.254Z,8833
2018-06-07T06:52:40.271Z,8873
2018-06-07T06:53:10.263Z,8920
2018-06-07T06:53:40.301Z,9003
2018-06-07T06:54:10.341Z,8987
2018-06-07T06:54:40.361Z,9123
2018-06-07T06:55:40.403Z,9090
2018-06-07T06:56:10.479Z,9173
2018-06-07T06:56:40.478Z,9817
2018-06-07T06:57:10.612Z,9173
2018-06-07T06:57:40.525Z,9183
2018-06-07T06:58:10.596Z,9190
2018-06-07T06:58:40.580Z,9177
2018-06-07T06:59:10.651Z,9203
2018-06-07T06:59:40.649Z,9233
2018-06-07T07:00:10.680Z,9287
2018-06-07T07:00:41.207Z,9377
2018-06-07T07:01:10.737Z,9323
2018-06-07T07:01:40.776Z,9343
2018-06-07T07:02:10.807Z,9380
2018-06-07T07:02:40.826Z,9407
2018-06-07T07:03:10.886Z,9587
2018-06-07T07:03:40.944Z,9453
2018-06-07T07:04:10.943Z,9483
2018-06-07T07:04:40.979Z,9510
2018-06-07T07:05:10.981Z,9537
2018-06-07T07:05:41.016Z,9587
2018-06-07T07:06:11.043Z,9907
2018-06-07T07:06:41.143Z,9990
2018-06-07T07:07:11.102Z,11410
2018-06-07T07:07:41.207Z,11440
2018-06-07T07:08:11.164Z,13400
2018-06-07T07:08:41.240Z,10607
2018-06-07T07:09:11.303Z,12127
2018-06-07T07:09:41.339Z,10730
2018-06-07T07:10:11.342Z,10637
2018-06-07T07:10:41.369Z,11100
2018-06-07T07:11:11.421Z,12410
2018-06-07T07:11:41.404Z,11500
2018-06-07T07:12:11.462Z,11027
2018-06-07T07:12:41.462Z,10950
2018-06-07T07:13:11.526Z,10577
2018-06-07T07:13:41.594Z,10443
2018-06-07T07:14:11.543Z,10737
2018-06-07T07:14:41.600Z,11013
2018-06-07T07:15:11.596Z,11153
2018-06-07T07:15:41.664Z,13703
2018-06-07T07:16:11.659Z,11730
2018-06-07T07:16:41.683Z,11803
2018-06-07T07:17:11.980Z,11990
2018-06-07T07:17:41.746Z,11913
2018-06-07T07:18:11.802Z,13573
2018-06-07T07:18:41.817Z,14253
2018-06-07T07:19:11.858Z,21390
2018-06-07T07:19:41.952Z,17353
2018-06-07T07:20:11.919Z,23307
2018-06-07T07:20:41.961Z,27807
2018-06-07T07:21:11.967Z,24417
2018-06-07T07:21:42.004Z,36027
2018-06-07T07:22:12.094Z,36437
2018-06-07T07:22:42.072Z,34667
2018-06-07T07:23:12.177Z,33960
2018-06-07T07:23:42.181Z,30087
2018-06-07T07:24:12.161Z,28230
2018-06-07T07:24:42.182Z,30960
2018-06-07T07:25:12.243Z,32377
2018-06-07T07:25:42.316Z,29613
2018-06-07T07:26:12.277Z,36967
2018-06-07T07:26:42.324Z,37890
2018-06-07T07:27:12.407Z,37580
2018-06-07T07:27:42.363Z,37743
2018-06-07T07:28:12.455Z,37987
2018-06-07T07:28:42.464Z,38310
2018-06-07T07:29:12.532Z,38597
2018-06-07T07:29:43.192Z,38430
2018-06-07T07:30:13.203Z,38050
2018-06-07T07:30:43.254Z,37577
2018-06-07T07:31:13.279Z,37910
2018-06-07T07:31:43.285Z,38477
2018-06-07T07:32:13.317Z,38637
2018-06-07T07:32:43.382Z,38920
2018-06-07T07:33:13.411Z,37740
2018-06-07T07:33:43.415Z,39167
2018-06-07T07:34:13.407Z,39070
2018-06-07T07:34:43.464Z,38980
2018-06-07T07:35:13.541Z,39270
2018-06-07T07:35:43.529Z,39683
2018-06-07T07:36:13.539Z,39703
2018-06-07T07:36:43.572Z,39860
2018-06-07T07:37:13.672Z,39813
2018-06-07T07:37:43.629Z,40170
2018-06-07T07:38:13.701Z,40183
2018-06-07T07:38:43.858Z,40133
2018-06-07T07:39:13.734Z,40323
2018-06-07T07:39:43.748Z,40273
2018-06-07T07:40:13.829Z,40487
2018-06-07T07:40:43.858Z,40907
2018-06-07T07:41:13.862Z,41000
2018-06-07T07:41:43.918Z,41353
2018-06-07T07:42:13.929Z,41380
2018-06-07T07:42:43.999Z,41390
2018-06-07T07:43:13.985Z,41450
2018-06-07T07:43:43.996Z,41513
2018-06-07T07:44:14.285Z,41500
2018-06-07T07:44:44.069Z,41607
2018-06-07T07:45:14.094Z,41727
2018-06-07T07:45:44.119Z,41737
2018-06-07T07:46:14.151Z,41690
2018-06-07T07:46:44.193Z,41770
2018-06-07T07:47:14.255Z,42057
2018-06-07T07:47:44.318Z,42087
2018-06-07T07:48:14.289Z,42060
2018-06-07T07:48:44.316Z,42180
2018-06-07T07:49:14.400Z,42233
2018-06-07T07:49:44.402Z,42180
2018-06-07T07:50:14.715Z,42073
2018-06-07T07:50:44.647Z,42290
2018-06-07T07:51:14.686Z,42533
2018-06-07T07:51:44.796Z,42793
2018-06-07T07:52:14.769Z,43113
2018-06-07T07:52:44.761Z,43197
2018-06-07T07:53:14.936Z,43343
2018-06-07T07:53:44.840Z,43430
2018-06-07T07:54:15.003Z,43550
2018-06-07T07:54:44.892Z,43613
2018-06-07T07:55:14.919Z,43927
2018-06-07T07:55:44.948Z,44033
2018-06-07T07:56:14.973Z,44020
2018-06-07T07:56:45.119Z,44153
2018-06-07T07:57:15.053Z,44410
2018-06-07T07:57:45.068Z,44663
2018-06-07T07:58:15.098Z,44750
2018-06-07T07:58:45.168Z,44957
2018-06-07T07:59:15.226Z,44853
2018-06-07T07:59:45.265Z,44983
2018-06-07T08:00:15.254Z,45010
2018-06-07T08:00:45.324Z,45027
2018-06-07T08:01:45.360Z,45063
2018-06-07T08:02:15.388Z,45100
2018-06-07T08:03:15.448Z,45200
2018-06-07T08:03:45.494Z,45307
2018-06-07T08:04:15.527Z,45437
2018-06-07T08:04:45.529Z,45643
2018-06-07T08:05:15.569Z,45893
2018-06-07T08:05:45.631Z,46050
2018-06-07T08:06:15.650Z,46297
2018-06-07T08:06:45.677Z,46303
2018-06-07T08:07:15.694Z,46297
2018-06-07T08:07:45.726Z,46443
2018-06-07T08:08:15.794Z,46463
2018-06-07T08:08:45.843Z,46577
2018-06-07T08:09:15.857Z,46647
2018-06-07T08:09:45.841Z,46930
2018-06-07T08:10:15.871Z,46890
2018-06-07T08:10:45.904Z,46840
2018-06-07T08:11:15.914Z,47090
2018-06-07T08:11:45.973Z,47147
2018-06-07T08:12:16.019Z,47110
2018-06-07T08:12:46.029Z,47137
2018-06-07T08:13:16.104Z,46967
2018-06-07T08:13:46.089Z,46743
2018-06-07T08:14:16.120Z,46737
2018-06-07T08:14:46.129Z,46753
2018-06-07T08:15:16.189Z,46930
2018-06-07T08:15:46.214Z,47263
2018-06-07T08:16:16.257Z,47310
2018-06-07T08:16:46.281Z,47453
2018-06-07T08:17:16.296Z,47537
2018-06-07T08:17:46.342Z,47623
2018-06-07T08:18:16.376Z,47797
2018-06-07T08:18:46.394Z,47820
2018-06-07T08:19:16.494Z,47653
2018-06-07T08:19:46.465Z,47647
2018-06-07T08:20:16.551Z,47730
2018-06-07T08:20:46.526Z,47903
2018-06-07T08:21:16.591Z,47887
2018-06-07T08:21:46.660Z,47903
2018-06-07T08:22:16.602Z,47817
2018-06-07T08:22:46.650Z,47757
2018-06-07T08:23:46.719Z,47793
2018-06-07T08:24:16.726Z,47787
2018-06-07T08:24:46.748Z,47903
2018-06-07T08:25:16.767Z,48230
2018-06-07T08:25:46.835Z,48550
2018-06-07T08:26:16.832Z,48643
2018-06-07T08:26:46.915Z,48797
2018-06-07T08:27:16.920Z,49023
2018-06-07T08:27:46.975Z,49233
2018-06-07T08:28:16.938Z,49330
2018-06-07T08:28:46.983Z,49560
2018-06-07T08:29:17.031Z,49703
2018-06-07T08:29:47.081Z,49767
2018-06-07T08:30:17.116Z,49877
2018-06-07T08:30:47.122Z,50013
2018-06-07T08:31:17.135Z,50090
2018-06-07T08:31:47.227Z,50350
2018-06-07T08:32:17.206Z,50387
2018-06-07T08:32:47.248Z,50547
2018-06-07T08:33:17.268Z,50583
2018-06-07T08:33:47.364Z,50533
2018-06-07T08:34:17.386Z,50500
2018-06-07T08:34:47.437Z,50467
2018-06-07T08:35:17.640Z,50500
2018-06-07T08:35:47.423Z,50480
2018-06-07T08:36:17.505Z,50530
2018-06-07T08:36:47.558Z,50590
2018-06-07T08:37:17.558Z,50517
2018-06-07T08:37:47.572Z,50627
2018-06-07T08:38:17.603Z,50580
2018-06-07T08:38:47.639Z,50423
2018-06-07T08:39:17.715Z,50347
2018-06-07T08:39:47.721Z,50487
2018-06-07T08:40:17.719Z,50590
2018-06-07T08:40:47.763Z,50593
2018-06-07T08:41:17.770Z,50610
2018-06-07T08:41:47.783Z,50820
2018-06-07T08:42:17.876Z,50893
2018-06-07T08:42:47.872Z,51140
2018-06-07T08:43:17.871Z,51353
2018-06-07T08:43:47.930Z,51447
2018-06-07T08:44:18.000Z,51223
2018-06-07T08:44:47.955Z,51313
2018-06-07T08:45:18.019Z,51100
2018-06-07T08:45:48.116Z,50843
2018-06-07T08:46:18.112Z,50953
2018-06-07T08:46:48.089Z,51343
2018-06-07T08:47:18.196Z,51683
2018-06-07T08:47:48.204Z,51590
2018-06-07T08:48:18.195Z,51960
2018-06-07T08:48:48.252Z,52233
2018-06-07T08:49:18.265Z,51987
2018-06-07T08:49:48.352Z,52333
2018-06-07T08:50:18.395Z,52590
2018-06-07T08:50:48.359Z,52520
2018-06-07T08:51:18.490Z,52293
2018-06-07T08:51:48.463Z,52397
2018-06-07T08:52:18.444Z,52270
2018-06-07T08:52:48.505Z,52400
2018-06-07T08:53:18.553Z,52510
2018-06-07T08:53:48.571Z,52247
2018-06-07T08:54:18.613Z,52030
2018-06-07T08:54:48.683Z,51760
2018-06-07T08:55:18.687Z,51587
2018-06-07T08:55:48.698Z,52297
2018-06-07T08:56:18.695Z,53103
2018-06-07T08:56:48.738Z,53527
2018-06-07T08:57:18.768Z,54383
2018-06-07T08:57:48.819Z,54820
2018-06-07T08:58:18.836Z,54863
2018-06-07T08:58:48.891Z,54630
2018-06-07T08:59:18.894Z,55053
2018-06-07T08:59:48.966Z,55173
2018-06-07T09:00:19.053Z,55307
2018-06-07T09:00:48.997Z,56290
2018-06-07T09:01:19.047Z,56660
2018-06-07T09:01:49.059Z,56440
2018-06-07T09:02:19.071Z,56563
2018-06-07T09:02:49.127Z,57503
2018-06-07T09:03:19.135Z,57650
2018-06-07T09:03:49.200Z,60043
2018-06-07T09:04:19.211Z,59840
2018-06-07T09:04:49.284Z,59393
2018-06-07T09:05:19.275Z,59353
2018-06-07T09:05:49.301Z,60750
2018-06-07T09:06:19.373Z,61410
2018-06-07T09:06:49.367Z,61787
2018-06-07T09:07:19.399Z,62043
2018-06-07T09:07:49.422Z,61037
2018-06-07T09:08:19.457Z,61333
2018-06-07T09:08:49.486Z,62200
2018-06-07T09:09:19.543Z,62327
2018-06-07T09:09:49.537Z,57583
2018-06-07T09:10:19.590Z,55440
2018-06-07T09:10:49.573Z,47993
2018-06-07T09:11:19.622Z,42433
2018-06-07T09:11:49.650Z,48227
2018-06-07T09:12:19.691Z,54290
2018-06-07T09:12:49.688Z,46623
2018-06-07T09:13:19.774Z,54080
2018-06-07T09:13:49.805Z,52847
2018-06-07T09:14:19.843Z,48057
2018-06-07T09:14:49.850Z,45487